createdAt,value
2019-03-30T00:01:15.820Z,226.00
2019-03-30T00:06:18.918Z,250.27
2019-03-30T00:11:22.289Z,241.30
2019-03-30T00:16:25.502Z,218.93
2019-03-30T00:21:28.708Z,204.30
2019-03-30T00:26:31.721Z,323.90
2019-03-30T00:31:35.129Z,285.73
2019-03-30T00:36:38.808Z,291.63
2019-03-30T00:41:41.985Z,277.83
2019-03-30T00:46:45.375Z,255.07
2019-03-30T00:51:48.585Z,268.67
2019-03-30T00:56:51.589Z,276.90
2019-03-30T01:01:54.699Z,303.30
2019-03-30T01:06:57.910Z,275.57
2019-03-30T01:12:01.427Z,297.53
2019-03-30T01:17:05.867Z,275.97
2019-03-30T01:22:09.079Z,305.37
2019-03-30T01:27:12.152Z,260.90
2019-03-30T01:32:15.496Z,284.40
2019-03-30T01:37:18.706Z,295.40
2019-03-30T01:42:21.917Z,298.13
2019-03-30T01:47:26.071Z,297.80
2019-03-30T01:52:29.155Z,317.67
2019-03-30T01:57:32.208Z,281.17
2019-03-30T02:02:35.371Z,307.80
2019-03-30T02:07:38.437Z,290.60
2019-03-30T02:12:41.612Z,317.53
2019-03-30T02:17:44.672Z,316.13
2019-03-30T02:22:47.767Z,341.07
2019-03-30T02:27:51.119Z,303.07
2019-03-30T02:32:54.212Z,265.83
2019-03-30T02:37:57.283Z,241.97
2019-03-30T02:43:00.732Z,313.93
2019-03-30T02:48:03.959Z,364.90
2019-03-30T02:53:07.023Z,326.87
2019-03-30T02:58:10.399Z,377.47
2019-03-30T03:03:13.446Z,399.63
2019-03-30T03:08:16.618Z,347.03
2019-03-30T03:13:19.744Z,335.27
2019-03-30T03:18:22.836Z,307.00
2019-03-30T03:23:26.248Z,320.60
2019-03-30T03:28:29.333Z,263.50
2019-03-30T03:33:33.537Z,246.57
2019-03-30T03:38:36.676Z,309.30
2019-03-30T03:43:39.759Z,239.20
2019-03-30T03:48:43.100Z,391.07
2019-03-30T03:53:46.717Z,264.43
2019-03-30T03:58:51.896Z,214.67
2019-03-30T04:03:58.572Z,244.27
2019-03-30T04:09:05.267Z,172.47
2019-03-30T04:14:11.049Z,305.90
2019-03-30T04:19:14.343Z,239.77
2019-03-30T04:24:17.551Z,187.50
2019-03-30T04:29:22.551Z,213.50
2019-03-30T04:34:25.507Z,162.33
2019-03-30T04:39:28.640Z,165.40
2019-03-30T04:44:31.749Z,187.77
2019-03-30T04:49:34.816Z,166.13
2019-03-30T04:54:38.041Z,131.07
2019-03-30T04:59:41.080Z,117.80
2019-03-30T05:04:44.156Z,137.80
2019-03-30T05:09:47.369Z,138.17
2019-03-30T05:14:50.497Z,133.10
2019-03-30T05:19:55.460Z,168.93
2019-03-30T05:24:58.451Z,148.20
2019-03-30T05:30:01.747Z,162.93
2019-03-30T05:35:05.812Z,177.50
2019-03-30T05:40:10.183Z,182.90
2019-03-30T05:45:13.591Z,136.00
2019-03-30T05:50:16.667Z,157.60
2019-03-30T05:55:20.871Z,208.83
2019-03-30T06:00:24.975Z,268.07
2019-03-30T06:05:28.133Z,243.23
2019-03-30T06:10:31.235Z,197.57
2019-03-30T06:15:34.293Z,197.33
2019-03-30T06:20:37.533Z,230.80
2019-03-30T06:25:40.743Z,198.50
2019-03-30T06:30:43.827Z,221.00
2019-03-30T06:35:47.165Z,220.50
2019-03-30T06:40:50.379Z,169.80
2019-03-30T06:45:53.584Z,238.70
2019-03-30T06:50:58.516Z,254.90
2019-03-30T06:56:01.848Z,265.57
2019-03-30T07:01:05.249Z,244.30
2019-03-30T07:06:09.724Z,225.20
2019-03-30T07:11:20.970Z,220.20
2019-03-30T07:16:18.684Z,202.30
2019-03-30T07:21:21.821Z,133.50
2019-03-30T07:26:24.893Z,115.60
2019-03-30T07:31:28.007Z,80.37
2019-03-30T07:36:31.071Z,75.30
2019-03-30T07:41:34.169Z,74.43
2019-03-30T07:46:37.300Z,74.33
2019-03-30T07:51:40.548Z,67.57
2019-03-30T07:56:43.753Z,62.43
2019-03-30T08:01:46.808Z,64.70
2019-03-30T08:06:50.173Z,58.50
2019-03-30T08:11:53.388Z,53.53
2019-03-30T08:16:56.519Z,44.43
2019-03-30T08:22:01.907Z,40.53
2019-03-30T08:27:05.165Z,34.63
2019-03-30T08:32:08.200Z,32.90
2019-03-30T08:37:11.361Z,31.63
2019-03-30T08:42:14.599Z,31.80
2019-03-30T08:47:17.662Z,30.10
2019-03-30T08:52:20.909Z,27.93
2019-03-30T08:57:24.212Z,25.40
2019-03-30T09:02:27.260Z,29.77
2019-03-30T09:07:31.452Z,23.73
2019-03-30T09:12:34.593Z,26.00
2019-03-30T09:17:37.644Z,20.30
2019-03-30T09:22:40.713Z,21.63
2019-03-30T09:27:43.870Z,20.77
2019-03-30T09:32:47.208Z,18.77
2019-03-30T09:37:50.261Z,17.83
2019-03-30T09:42:53.628Z,18.73
2019-03-30T09:47:56.737Z,18.57
2019-03-30T09:52:59.799Z,17.60
2019-03-30T09:58:02.953Z,16.93
2019-03-30T10:03:06.356Z,17.30
2019-03-30T10:08:09.501Z,18.37
2019-03-30T10:13:12.563Z,14.33
2019-03-30T10:18:15.735Z,15.03
2019-03-30T10:23:19.004Z,14.07
2019-03-30T10:28:22.059Z,14.63
2019-03-30T10:33:25.425Z,12.57
2019-03-30T10:38:28.640Z,12.93
2019-03-30T10:43:31.844Z,13.60
2019-03-30T10:48:35.056Z,12.40
2019-03-30T10:53:38.127Z,11.83
2019-03-30T10:58:41.185Z,14.50
2019-03-30T11:03:44.377Z,11.50
2019-03-30T11:08:47.396Z,12.40
2019-03-30T11:13:50.798Z,14.57
2019-03-30T11:18:53.839Z,10.97
2019-03-30T11:23:56.915Z,10.70
2019-03-30T11:29:00.008Z,10.57
2019-03-30T11:34:03.151Z,9.90
2019-03-30T11:39:06.548Z,12.07
2019-03-30T11:44:09.611Z,9.87
2019-03-30T11:49:12.780Z,10.87
2019-03-30T11:54:15.874Z,10.40
2019-03-30T11:59:18.892Z,9.00
2019-03-30T12:04:21.939Z,13.07
2019-03-30T12:09:25.191Z,11.43
2019-03-30T12:14:28.401Z,10.50
2019-03-30T12:19:31.544Z,12.20
2019-03-30T12:24:34.598Z,10.33
2019-03-30T12:29:38.115Z,12.20
2019-03-30T12:34:41.549Z,11.07
2019-03-30T12:39:44.583Z,11.77
2019-03-30T12:44:48.773Z,10.57
2019-03-30T12:49:51.818Z,11.10
2019-03-30T12:54:54.915Z,8.70
2019-03-30T12:59:59.341Z,10.27
2019-03-30T13:05:03.095Z,10.50
2019-03-30T13:10:07.320Z,7.30
2019-03-30T13:15:11.225Z,6.00
2019-03-30T13:20:14.743Z,6.07
2019-03-30T13:25:19.173Z,6.43
2019-03-30T13:30:22.163Z,6.33
2019-03-30T13:35:25.283Z,7.67
2019-03-30T13:40:28.507Z,5.80
2019-03-30T13:45:31.610Z,6.83
2019-03-30T13:50:34.670Z,4.10
2019-03-30T13:55:37.833Z,3.47
2019-03-30T14:00:41.352Z,6.53
2019-03-30T14:05:46.441Z,20.90
2019-03-30T14:10:50.534Z,26.60
2019-03-30T14:15:53.832Z,32.20
2019-03-30T14:20:57.265Z,41.93
2019-03-30T14:26:00.492Z,57.03
2019-03-30T14:31:03.992Z,64.83
2019-03-30T14:36:07.199Z,72.60
2019-03-30T14:41:10.227Z,82.20
2019-03-30T14:46:13.622Z,79.70
2019-03-30T14:51:17.139Z,74.30
2019-03-30T14:56:20.145Z,83.83
2019-03-30T15:01:23.252Z,84.03
2019-03-30T15:06:26.304Z,89.37
2019-03-30T15:11:29.673Z,94.77
2019-03-30T15:16:32.671Z,92.30
2019-03-30T15:21:35.944Z,88.47
2019-03-30T15:26:38.995Z,86.00
2019-03-30T15:31:42.384Z,91.23
2019-03-30T15:36:45.432Z,86.53
2019-03-30T15:41:48.935Z,71.90
2019-03-30T15:46:52.146Z,42.50
2019-03-30T15:51:55.355Z,33.73
2019-03-30T15:56:58.566Z,35.77
2019-03-30T16:02:02.083Z,32.50
2019-03-30T16:07:07.044Z,30.00
2019-03-30T16:12:10.473Z,33.90
2019-03-30T16:17:15.021Z,33.60
2019-03-30T16:22:19.492Z,36.37
2019-03-30T16:27:29.245Z,37.70
2019-03-30T16:32:27.900Z,38.50
2019-03-30T16:37:31.405Z,41.80
2019-03-30T16:42:34.847Z,57.50
2019-03-30T16:47:38.043Z,60.63
2019-03-30T16:52:41.425Z,58.63
2019-03-30T16:57:44.535Z,66.77
2019-03-30T17:02:49.571Z,63.43
2019-03-30T17:07:52.471Z,72.17
2019-03-30T17:12:56.051Z,74.43
2019-03-30T17:17:59.146Z,74.03
2019-03-30T17:23:02.360Z,72.63
2019-03-30T17:28:07.052Z,76.63
2019-03-30T17:33:10.443Z,77.13
2019-03-30T17:38:13.686Z,75.60
2019-03-30T17:43:16.859Z,74.97
2019-03-30T17:48:20.132Z,73.83
2019-03-30T17:53:23.400Z,79.90
2019-03-30T17:58:28.439Z,72.40
2019-03-30T18:03:31.453Z,77.00
2019-03-30T18:08:34.902Z,76.93
2019-03-30T18:13:38.147Z,78.23
2019-03-30T18:18:41.365Z,82.10
2019-03-30T18:23:47.421Z,84.93
2019-03-30T18:28:49.422Z,84.40
2019-03-30T18:33:53.044Z,90.87
2019-03-30T18:39:08.770Z,93.70
2019-03-30T18:44:02.940Z,96.33
2019-03-30T18:49:05.952Z,101.77
2019-03-30T18:54:09.038Z,105.93
2019-03-30T18:59:12.134Z,105.17
2019-03-30T19:04:15.167Z,141.73
2019-03-30T19:09:18.208Z,116.97
2019-03-30T19:14:21.303Z,103.93
2019-03-30T19:19:24.356Z,120.80
2019-03-30T19:24:27.409Z,114.47
2019-03-30T19:29:31.600Z,106.30
2019-03-30T19:34:34.640Z,112.67
2019-03-30T19:39:37.679Z,105.47
2019-03-30T19:44:40.852Z,111.20
2019-03-30T19:49:45.134Z,133.90
2019-03-30T19:54:48.145Z,106.87
2019-03-30T19:59:51.221Z,110.33
2019-03-30T20:04:54.255Z,105.50
2019-03-30T20:09:57.534Z,112.53
2019-03-30T20:15:02.278Z,108.77
2019-03-30T20:20:05.780Z,113.43
2019-03-30T20:25:08.809Z,119.27
2019-03-30T20:30:12.060Z,135.53
2019-03-30T20:35:15.410Z,122.17
2019-03-30T20:40:18.848Z,106.33
2019-03-30T20:45:21.904Z,105.23
2019-03-30T20:50:25.271Z,92.30
2019-03-30T20:55:28.323Z,101.07
2019-03-30T21:00:31.412Z,102.40
2019-03-30T21:05:34.460Z,117.47
2019-03-30T21:10:37.717Z,110.00
2019-03-30T21:15:40.967Z,107.57
2019-03-30T21:20:44.012Z,103.47
2019-03-30T21:25:47.132Z,116.37
2019-03-30T21:30:50.260Z,112.13
2019-03-30T21:35:53.320Z,110.03
2019-03-30T21:40:56.838Z,108.03
2019-03-30T21:46:00.049Z,117.97
2019-03-30T21:51:05.411Z,137.63
2019-03-30T21:56:08.619Z,131.93
2019-03-30T22:01:12.044Z,114.90
2019-03-30T22:06:15.347Z,100.73
2019-03-30T22:11:18.360Z,85.10
2019-03-30T22:16:21.419Z,104.57
2019-03-30T22:21:24.576Z,99.60
2019-03-30T22:26:28.428Z,91.23
2019-03-30T22:31:31.707Z,84.60
2019-03-30T22:36:34.917Z,199.37
2019-03-30T22:41:38.126Z,133.97
2019-03-30T22:46:41.337Z,193.77
2019-03-30T22:51:44.548Z,168.37
2019-03-30T22:56:48.005Z,141.57
2019-03-30T23:01:51.198Z,155.93
2019-03-30T23:06:54.280Z,153.43
2019-03-30T23:11:58.896Z,194.77
2019-03-30T23:17:01.960Z,197.07
2019-03-30T23:22:05.380Z,174.57
2019-03-30T23:27:09.637Z,156.83
2019-03-30T23:32:14.598Z,138.63
2019-03-30T23:37:19.589Z,120.67
2019-03-30T23:42:22.717Z,104.20
2019-03-30T23:47:26.111Z,120.87
2019-03-30T23:52:29.137Z,110.83
2019-03-30T23:57:32.379Z,117.63
